Time;durP1;ratioP1;P1;durP2;ratioP2;P2;SDS_P1;SDS_P2;PMS_P1;PMS_P2;Temp;Humidity;BMP_temperature;BMP_pressure;BME280_temperature;BME280_humidity;BME280_pressure;Samples;Min_cycle;Max_cycle;Signal;HPM_P1;HPM_P2
2022/09/10 00:01:50;;;;;;;1.67;0.70;;;13.50;99.90;;;;;;5050958;28;20193;-65
2022/09/10 00:04:17;;;;;;;1.20;0.50;;;13.50;99.90;;;;;;5052012;28;20189;-65
2022/09/10 00:06:43;;;;;;;1.30;0.60;;;13.50;99.90;;;;;;5051757;28;20184;-65
2022/09/10 00:09:10;;;;;;;1.20;0.50;;;13.60;99.90;;;;;;5051669;28;20499;-65
2022/09/10 00:11:39;;;;;;;1.20;0.50;;;13.50;99.90;;;;;;5051252;28;20927;-65
2022/09/10 00:14:06;;;;;;;1.30;0.50;;;13.50;99.90;;;;;;5051404;28;20431;-65
2022/09/10 00:16:32;;;;;;;4.43;1.10;;;13.50;99.90;;;;;;5051694;28;20464;-65
2022/09/10 00:18:58;;;;;;;2.43;0.90;;;13.50;99.90;;;;;;5055564;28;20412;-65
2022/09/10 00:21:24;;;;;;;1.40;0.50;;;13.50;99.90;;;;;;5055008;28;20185;-65
2022/09/10 00:23:50;;;;;;;1.40;0.60;;;13.50;99.90;;;;;;5055433;28;20760;-65
2022/09/10 00:26:20;;;;;;;1.73;0.83;;;13.50;99.90;;;;;;5055484;28;20512;-65
2022/09/10 00:28:47;;;;;;;1.50;0.57;;;13.50;99.90;;;;;;5053727;28;20188;-65
2022/09/10 00:31:13;;;;;;;1.50;0.60;;;13.50;99.90;;;;;;5051405;28;20466;-65
2022/09/10 00:33:40;;;;;;;1.63;0.70;;;13.50;99.90;;;;;;5055696;28;20422;-67
2022/09/10 00:36:23;;;;;;;1.30;0.50;;;13.50;99.90;;;;;;5055655;28;20509;-66
2022/09/10 00:38:50;;;;;;;1.93;0.70;;;13.50;99.90;;;;;;5055301;28;20908;-67
2022/09/10 00:41:18;;;;;;;1.90;0.60;;;13.50;99.90;;;;;;5054726;28;20428;-67
2022/09/10 00:43:47;;;;;;;3.63;1.03;;;13.50;99.90;;;;;;5054934;28;20517;-66
2022/09/10 00:46:42;;;;;;;2.10;1.03;;;13.50;99.90;;;;;;5054472;28;20428;-67
2022/09/10 00:49:20;;;;;;;1.30;0.50;;;13.50;99.90;;;;;;5055986;28;20443;-67
2022/09/10 00:51:49;;;;;;;1.97;0.70;;;13.60;99.90;;;;;;5054318;28;20423;-67
2022/09/10 00:54:16;;;;;;;1.70;0.77;;;13.50;99.90;;;;;;5052576;28;21073;-67
2022/09/10 00:56:42;;;;;;;1.43;0.70;;;13.50;99.90;;;;;;5051238;28;20478;-67
2022/09/10 00:59:09;;;;;;;3.53;0.80;;;13.50;99.90;;;;;;5055059;28;20487;-67
2022/09/10 01:01:37;;;;;;;2.20;0.73;;;13.50;99.90;;;;;;5053811;28;20800;-67
2022/09/10 01:04:05;;;;;;;2.00;0.80;;;13.60;99.90;;;;;;5054813;28;20763;-66
2022/09/10 01:06:31;;;;;;;1.53;0.60;;;13.60;99.90;;;;;;5054456;28;20474;-66
2022/09/10 01:08:56;;;;;;;1.50;0.63;;;13.60;99.90;;;;;;5054614;28;20424;-66
2022/09/10 01:11:43;;;;;;;5.93;0.90;;;13.50;99.90;;;;;;5054183;28;20931;-67
2022/09/10 01:14:12;;;;;;;2.03;0.70;;;13.60;99.90;;;;;;5054722;28;20511;-67
2022/09/10 01:16:47;;;;;;;1.37;0.53;;;13.60;99.90;;;;;;5054014;28;20459;-67
2022/09/10 01:19:24;;;;;;;2.13;0.77;;;13.70;99.90;;;;;;5054372;28;20423;-66
2022/09/10 01:22:15;;;;;;;4.53;1.00;;;13.70;99.90;;;;;;5053995;28;20928;-67
2022/09/10 01:25:03;;;;;;;1.40;0.60;;;13.70;99.90;;;;;;5054459;28;20913;-66
2022/09/10 01:27:44;;;;;;;1.50;0.50;;;13.70;99.90;;;;;;5049282;28;20966;-67
2022/09/10 01:30:16;;;;;;;1.67;0.83;;;13.70;99.90;;;;;;5053152;28;20804;-67
2022/09/10 01:32:45;;;;;;;5.10;0.90;;;13.60;99.90;;;;;;5054122;28;20764;-66
2022/09/10 01:35:35;;;;;;;1.63;0.63;;;13.60;99.90;;;;;;5054155;28;20487;-66
2022/09/10 01:38:08;;;;;;;1.40;0.60;;;13.60;99.90;;;;;;5043508;28;20733;-66
2022/09/10 01:40:34;;;;;;;2.03;0.90;;;13.60;99.90;;;;;;5054092;28;20891;-66
2022/09/10 01:43:09;;;;;;;1.80;0.80;;;13.60;99.90;;;;;;5053861;28;20416;-66
2022/09/10 01:45:50;;;;;;;2.60;1.20;;;13.50;99.90;;;;;;5053395;28;20911;-66
2022/09/10 01:48:46;;;;;;;2.77;0.80;;;13.50;99.90;;;;;;5054158;28;20423;-66
2022/09/10 01:51:45;;;;;;;1.40;0.70;;;13.50;99.90;;;;;;5053363;28;20452;-66
2022/09/10 01:54:27;;;;;;;1.97;0.70;;;13.50;99.90;;;;;;5042253;28;20421;-67
2022/09/10 01:57:05;;;;;;;3.40;0.90;;;13.50;99.90;;;;;;5053708;28;20464;-66
2022/09/10 01:59:34;;;;;;;3.10;1.53;;;13.50;99.90;;;;;;5053703;28;20424;-67
2022/09/10 02:02:08;;;;;;;5.20;0.80;;;13.40;99.90;;;;;;5052958;28;20427;-66
2022/09/10 02:04:35;;;;;;;1.67;0.90;;;13.40;99.90;;;;;;5053381;28;20416;-67
2022/09/10 02:07:04;;;;;;;1.50;0.70;;;13.40;99.90;;;;;;5053659;28;20451;-66
2022/09/10 02:09:30;;;;;;;4.30;0.87;;;13.30;99.90;;;;;;5052745;28;20462;-66
2022/09/10 02:11:56;;;;;;;1.70;0.80;;;13.30;99.90;;;;;;5040847;28;20905;-67
2022/09/10 02:14:22;;;;;;;1.40;0.70;;;13.20;99.90;;;;;;5053371;28;20474;-66
2022/09/10 02:16:53;;;;;;;1.60;0.80;;;13.30;99.90;;;;;;5052801;28;20319;-66
2022/09/10 02:19:19;;;;;;;2.30;0.83;;;13.30;99.90;;;;;;5053326;28;20251;-66
2022/09/10 02:21:45;;;;;;;2.90;0.80;;;13.20;99.90;;;;;;5052859;28;21069;-66
2022/09/10 02:24:12;;;;;;;2.20;0.83;;;13.20;99.90;;;;;;5052956;28;20520;-66
2022/09/10 02:26:41;;;;;;;1.30;0.60;;;13.30;99.90;;;;;;5053177;28;20436;-66
2022/09/10 02:29:11;;;;;;;1.57;0.80;;;13.30;99.90;;;;;;5043394;28;20452;-67
2022/09/10 02:31:37;;;;;;;1.40;0.63;;;13.30;99.90;;;;;;5051863;28;20791;-66
2022/09/10 02:34:02;;;;;;;1.80;1.00;;;13.30;99.90;;;;;;5053136;28;20420;-67
2022/09/10 02:36:30;;;;;;;1.70;0.87;;;13.30;99.90;;;;;;5052838;28;20475;-67
2022/09/10 02:38:56;;;;;;;4.13;0.60;;;13.20;99.90;;;;;;5052477;28;20190;-67
2022/09/10 02:41:23;;;;;;;1.40;0.80;;;13.30;99.90;;;;;;5052028;28;20422;-67
2022/09/10 02:43:48;;;;;;;1.70;0.73;;;13.20;99.90;;;;;;5052886;28;20428;-67
2022/09/10 02:46:14;;;;;;;1.60;0.70;;;13.20;99.90;;;;;;5052107;28;20416;-67
2022/09/10 02:48:39;;;;;;;3.40;1.13;;;13.20;99.90;;;;;;5052917;28;20622;-67
2022/09/10 02:51:05;;;;;;;2.57;1.17;;;13.20;99.90;;;;;;5052198;28;20194;-67
2022/09/10 02:53:31;;;;;;;3.10;0.80;;;13.20;99.90;;;;;;5052847;28;20194;-67
2022/09/10 02:55:57;;;;;;;2.43;1.00;;;13.20;99.90;;;;;;5045620;28;20217;-67
2022/09/10 02:58:23;;;;;;;5.63;0.70;;;13.10;99.90;;;;;;5052751;28;20217;-67
2022/09/10 03:00:48;;;;;;;5.93;1.07;;;13.10;99.90;;;;;;5042662;28;20500;-67
2022/09/10 03:03:16;;;;;;;1.67;0.70;;;13.10;99.90;;;;;;5048037;28;20511;-67
2022/09/10 03:05:42;;;;;;;3.93;1.03;;;13.20;99.90;;;;;;5052628;28;20235;-67
2022/09/10 03:08:08;;;;;;;3.47;1.53;;;13.10;99.90;;;;;;5052706;28;20475;-67
2022/09/10 03:10:34;;;;;;;2.67;1.17;;;13.10;99.90;;;;;;5052348;28;20449;-67
2022/09/10 03:13:00;;;;;;;2.90;1.00;;;13.10;99.90;;;;;;5051873;28;20424;-67
2022/09/10 03:15:26;;;;;;;1.40;0.73;;;13.10;99.90;;;;;;5051751;28;20464;-67
2022/09/10 03:17:52;;;;;;;2.00;0.97;;;13.00;99.90;;;;;;5052337;28;20189;-67
2022/09/10 03:20:18;;;;;;;3.33;0.70;;;13.00;99.90;;;;;;5052145;28;20428;-67
2022/09/10 03:22:44;;;;;;;1.60;0.70;;;13.10;99.90;;;;;;5051825;28;20208;-67
2022/09/10 03:25:10;;;;;;;2.07;0.90;;;13.00;99.90;;;;;;5051969;28;20189;-67
2022/09/10 03:27:36;;;;;;;6.93;0.93;;;13.00;99.90;;;;;;5051979;28;20423;-67
2022/09/10 03:30:01;;;;;;;2.00;0.90;;;13.00;99.90;;;;;;5050512;28;20420;-66
2022/09/10 03:32:27;;;;;;;1.90;0.70;;;13.00;99.90;;;;;;5051547;28;20201;-67
2022/09/10 03:34:53;;;;;;;1.50;0.87;;;13.00;99.90;;;;;;5052101;28;20181;-67
2022/09/10 03:37:19;;;;;;;2.50;1.00;;;13.00;99.90;;;;;;5051975;28;20177;-67
2022/09/10 03:39:45;;;;;;;2.80;1.17;;;13.00;99.90;;;;;;5042248;28;20186;-67
2022/09/10 03:42:11;;;;;;;1.80;0.80;;;13.00;99.90;;;;;;5048045;28;20790;-65
2022/09/10 03:44:37;;;;;;;1.30;0.50;;;13.00;99.90;;;;;;5051560;28;20193;-66
2022/09/10 03:47:03;;;;;;;3.40;1.10;;;13.00;99.90;;;;;;5051516;28;20213;-65
2022/09/10 03:49:29;;;;;;;2.27;0.90;;;13.00;99.90;;;;;;5051714;28;20265;-65
2022/09/10 03:51:55;;;;;;;1.60;0.70;;;13.00;99.90;;;;;;5050954;28;20964;-64
2022/09/10 03:54:20;;;;;;;3.63;1.07;;;13.00;99.90;;;;;;5048443;28;20555;-65
2022/09/10 03:56:46;;;;;;;1.63;0.70;;;13.00;99.90;;;;;;5047960;28;20567;-65
2022/09/10 03:59:16;;;;;;;1.93;0.67;;;13.00;99.90;;;;;;5051909;28;20634;-65
2022/09/10 04:01:41;;;;;;;1.80;0.83;;;13.00;99.90;;;;;;5050402;28;20185;-65
2022/09/10 04:04:07;;;;;;;1.50;0.70;;;13.00;99.90;;;;;;5051791;28;20428;-65
2022/09/10 04:06:34;;;;;;;2.20;1.07;;;12.90;99.90;;;;;;5051218;28;20577;-65
2022/09/10 04:09:00;;;;;;;1.80;0.80;;;12.90;99.90;;;;;;5051807;28;20281;-64
2022/09/10 04:11:26;;;;;;;1.90;0.80;;;12.80;99.90;;;;;;5050838;28;20439;-65
2022/09/10 04:13:53;;;;;;;2.77;1.27;;;12.80;99.90;;;;;;5051757;28;20420;-65
2022/09/10 04:16:21;;;;;;;5.67;1.17;;;12.80;99.90;;;;;;5050520;28;20542;-65
2022/09/10 04:18:46;;;;;;;2.33;0.90;;;12.80;99.90;;;;;;5051867;28;20417;-64
2022/09/10 04:21:12;;;;;;;3.30;1.10;;;12.80;99.90;;;;;;5050866;28;20527;-65
2022/09/10 04:23:40;;;;;;;3.10;0.80;;;12.70;99.90;;;;;;5051608;28;20217;-65
2022/09/10 04:26:17;;;;;;;25.13;1.03;;;12.80;99.90;;;;;;5038141;28;20182;-65
2022/09/10 04:28:43;;;;;;;1.40;0.70;;;12.80;99.90;;;;;;5056702;28;20443;-65
2022/09/10 04:31:09;;;;;;;1.30;0.50;;;12.80;99.90;;;;;;5049539;28;20898;-65
2022/09/10 04:33:36;;;;;;;2.07;0.70;;;12.70;99.90;;;;;;5051910;28;20412;-65
2022/09/10 04:36:03;;;;;;;1.30;0.60;;;12.80;99.90;;;;;;5051564;28;20846;-65
2022/09/10 04:38:31;;;;;;;1.80;0.80;;;12.80;99.90;;;;;;5051574;28;20956;-65
2022/09/10 04:41:00;;;;;;;4.40;1.00;;;12.90;99.90;;;;;;5051150;28;20463;-64
2022/09/10 04:43:26;;;;;;;1.87;0.77;;;12.90;99.90;;;;;;5051577;28;20425;-65
2022/09/10 04:45:54;;;;;;;1.30;0.60;;;12.90;99.90;;;;;;5050549;28;20893;-64
2022/09/10 04:48:20;;;;;;;1.70;0.70;;;12.90;99.90;;;;;;5051329;28;20424;-65
2022/09/10 04:50:46;;;;;;;4.30;0.97;;;12.90;99.90;;;;;;5051403;28;20464;-65
2022/09/10 04:53:12;;;;;;;1.80;0.83;;;12.90;99.90;;;;;;5037254;28;20496;-65
2022/09/10 04:55:41;;;;;;;1.93;0.60;;;13.00;99.90;;;;;;5050993;28;20218;-64
2022/09/10 04:58:07;;;;;;;2.00;0.80;;;13.00;99.90;;;;;;5050862;28;20205;-65
2022/09/10 05:00:33;;;;;;;1.60;0.77;;;13.00;99.90;;;;;;5050375;28;20435;-64
2022/09/10 05:02:59;;;;;;;1.80;0.70;;;13.00;99.90;;;;;;5051534;28;20432;-64
2022/09/10 05:05:24;;;;;;;1.80;0.90;;;12.90;99.90;;;;;;5054794;28;20201;-65
2022/09/10 05:07:51;;;;;;;3.77;0.80;;;13.00;99.90;;;;;;5054787;28;20217;-65
2022/09/10 05:10:20;;;;;;;1.63;0.70;;;13.00;99.90;;;;;;5054592;28;20657;-65
2022/09/10 05:12:46;;;;;;;7.27;0.93;;;13.00;99.90;;;;;;5053993;28;20430;-64
2022/09/10 05:15:12;;;;;;;1.93;0.90;;;13.00;99.90;;;;;;5053988;28;20517;-65
2022/09/10 05:17:38;;;;;;;2.03;0.60;;;13.00;99.90;;;;;;5054147;28;20948;-64
2022/09/10 05:20:06;;;;;;;1.40;0.70;;;13.00;99.90;;;;;;5054450;28;20182;-64
2022/09/10 05:22:33;;;;;;;1.70;0.93;;;13.00;99.90;;;;;;5053899;28;20416;-65
2022/09/10 05:24:59;;;;;;;5.43;0.80;;;13.10;99.90;;;;;;5054211;28;20412;-65
2022/09/10 05:27:24;;;;;;;1.73;0.73;;;13.10;99.90;;;;;;5053933;28;20815;-65
2022/09/10 05:29:50;;;;;;;1.50;0.80;;;13.10;99.90;;;;;;5053137;28;20205;-65
2022/09/10 05:32:17;;;;;;;1.63;0.60;;;13.10;99.90;;;;;;5053380;28;20227;-65
2022/09/10 05:34:47;;;;;;;1.50;0.73;;;13.10;99.90;;;;;;5054262;28;20195;-65
2022/09/10 05:37:13;;;;;;;1.60;0.80;;;13.10;99.90;;;;;;5053830;28;20562;-64
2022/09/10 05:39:39;;;;;;;2.90;1.07;;;13.10;99.90;;;;;;5053857;28;20431;-64
2022/09/10 05:42:06;;;;;;;3.00;0.80;;;13.20;99.90;;;;;;5053462;28;20424;-64
2022/09/10 05:44:31;;;;;;;9.40;0.70;;;13.10;99.90;;;;;;5053923;28;20210;-65
2022/09/10 05:46:57;;;;;;;1.70;0.70;;;13.10;99.90;;;;;;5053327;28;20502;-64
2022/09/10 05:49:22;;;;;;;2.03;0.90;;;13.10;99.90;;;;;;5054000;28;20190;-64
2022/09/10 05:51:48;;;;;;;1.33;0.50;;;13.20;99.90;;;;;;5053288;28;20193;-64
2022/09/10 05:54:15;;;;;;;1.50;0.60;;;13.20;99.90;;;;;;5053787;28;20186;-65
2022/09/10 05:56:40;;;;;;;6.80;0.97;;;13.30;99.90;;;;;;5043913;28;20576;-65
2022/09/10 05:59:09;;;;;;;1.30;0.50;;;13.20;99.90;;;;;;5053918;28;20420;-65
2022/09/10 06:01:35;;;;;;;2.60;1.00;;;13.20;99.90;;;;;;5038857;28;20643;-64
2022/09/10 06:04:01;;;;;;;1.30;0.53;;;13.20;99.90;;;;;;5054078;28;20420;-65
2022/09/10 06:06:27;;;;;;;1.60;0.77;;;13.20;99.90;;;;;;5052266;28;20268;-64
2022/09/10 06:08:55;;;;;;;1.73;0.77;;;13.20;99.90;;;;;;5041837;28;20511;-65
2022/09/10 06:11:21;;;;;;;2.23;0.90;;;13.30;99.90;;;;;;5053146;28;20237;-65
2022/09/10 06:13:48;;;;;;;3.47;0.50;;;13.20;99.90;;;;;;5053319;28;20485;-65
2022/09/10 06:16:14;;;;;;;19.70;0.97;;;13.30;99.90;;;;;;5052527;28;20460;-65
2022/09/10 06:18:41;;;;;;;2.70;0.60;;;13.30;99.90;;;;;;5053609;28;20424;-65
2022/09/10 06:21:11;;;;;;;1.40;0.53;;;13.30;99.90;;;;;;5052682;28;20424;-65
2022/09/10 06:23:37;;;;;;;1.30;0.67;;;13.30;99.90;;;;;;5053201;28;21091;-66
2022/09/10 06:26:07;;;;;;;3.37;1.20;;;13.30;99.90;;;;;;5052913;28;20447;-65
2022/09/10 06:28:32;;;;;;;2.47;0.70;;;13.40;99.90;;;;;;5052813;28;20436;-66
2022/09/10 06:30:58;;;;;;;1.40;0.73;;;13.30;99.90;;;;;;5051262;28;20470;-65
2022/09/10 06:33:24;;;;;;;2.50;0.80;;;13.40;99.90;;;;;;5053020;28;20712;-66
2022/09/10 06:35:55;;;;;;;1.57;0.80;;;13.40;99.90;;;;;;5052849;28;20467;-65
2022/09/10 06:38:21;;;;;;;1.30;0.50;;;13.40;99.90;;;;;;5052590;28;20186;-65
2022/09/10 06:40:54;;;;;;;8.60;0.97;;;13.40;99.90;;;;;;5052749;28;20465;-66
2022/09/10 06:43:27;;;;;;;1.27;0.47;;;13.40;99.90;;;;;;5052609;28;20755;-66
2022/09/10 06:45:53;;;;;;;2.60;1.00;;;13.40;99.90;;;;;;5051910;28;20922;-71
2022/09/10 06:48:26;;;;;;;3.83;0.77;;;13.50;99.90;;;;;;5052694;28;20475;-65
2022/09/10 06:50:57;;;;;;;2.23;1.07;;;13.50;99.90;;;;;;5038514;28;20428;-66
2022/09/10 06:53:24;;;;;;;2.00;0.60;;;13.50;99.90;;;;;;5052370;28;20421;-66
2022/09/10 06:55:51;;;;;;;1.70;0.70;;;13.60;99.90;;;;;;5045214;28;20927;-65
2022/09/10 06:58:18;;;;;;;1.37;0.67;;;13.50;99.90;;;;;;5052257;28;20451;-66
2022/09/10 07:00:46;;;;;;;5.23;1.47;;;13.60;99.90;;;;;;5051709;28;20878;-66
2022/09/10 07:03:16;;;;;;;3.00;0.60;;;13.60;99.90;;;;;;5051931;28;20643;-66
2022/09/10 07:05:44;;;;;;;3.00;0.80;;;13.60;99.90;;;;;;5052404;28;20509;-65
2022/09/10 07:08:14;;;;;;;3.43;1.10;;;13.60;99.90;;;;;;5054842;28;20439;-69
2022/09/10 07:10:43;;;;;;;1.50;0.50;;;13.80;99.90;;;;;;5062084;28;20421;-65
2022/09/10 07:13:08;;;;;;;1.50;0.70;;;13.90;99.90;;;;;;5051494;28;20562;-66
2022/09/10 07:15:35;;;;;;;3.73;0.70;;;14.10;99.90;;;;;;5051189;28;20551;-65
2022/09/10 07:18:00;;;;;;;1.40;0.60;;;14.20;99.90;;;;;;5051046;28;20194;-66
2022/09/10 07:20:27;;;;;;;1.60;0.67;;;14.40;99.90;;;;;;5052042;28;20905;-66
2022/09/10 07:22:54;;;;;;;2.23;0.80;;;15.30;99.90;;;;;;5051507;28;20552;-67
2022/09/10 07:25:20;;;;;;;1.37;0.63;;;15.60;99.90;;;;;;5050424;28;20490;-66
2022/09/10 07:27:46;;;;;;;1.60;0.87;;;15.70;99.90;;;;;;5051834;28;20428;-66
2022/09/10 07:30:13;;;;;;;2.07;0.73;;;15.60;99.90;;;;;;5050478;28;20423;-66
2022/09/10 07:32:39;;;;;;;1.30;0.50;;;15.30;99.90;;;;;;5051635;28;20196;-66
2022/09/10 07:35:06;;;;;;;1.93;0.70;;;15.10;99.90;;;;;;5052000;28;20510;-66
2022/09/10 07:37:33;;;;;;;1.60;0.90;;;15.00;99.90;;;;;;5051672;28;20747;-66
2022/09/10 07:39:58;;;;;;;1.60;0.60;;;14.90;99.90;;;;;;5052118;28;20783;-66
2022/09/10 07:42:24;;;;;;;1.97;0.63;;;14.80;99.90;;;;;;5051419;28;20424;-66
2022/09/10 07:44:50;;;;;;;2.03;0.67;;;14.70;99.90;;;;;;5051469;28;20185;-66
2022/09/10 07:47:16;;;;;;;1.57;0.70;;;14.70;99.90;;;;;;5051463;28;20748;-66
2022/09/10 07:49:43;;;;;;;2.33;0.87;;;14.60;99.90;;;;;;5051602;28;20215;-66
2022/09/10 07:52:10;;;;;;;1.73;0.50;;;14.70;99.90;;;;;;5050962;28;20192;-65
2022/09/10 07:54:36;;;;;;;1.20;0.50;;;14.90;99.90;;;;;;5046167;28;21041;-65
2022/09/10 07:57:02;;;;;;;2.17;0.60;;;15.50;99.90;;;;;;5049611;28;20471;-65
2022/09/10 07:59:27;;;;;;;1.37;0.57;;;16.30;99.90;;;;;;5045034;28;20210;-65
2022/09/10 08:01:53;;;;;;;1.40;0.50;;;16.50;99.90;;;;;;5048443;28;20224;-65
2022/09/10 08:04:18;;;;;;;1.70;0.70;;;17.00;99.90;;;;;;5051373;28;20184;-65
2022/09/10 08:06:44;;;;;;;3.10;0.97;;;17.90;99.90;;;;;;5051446;28;20633;-65
2022/09/10 08:09:10;;;;;;;1.33;0.47;;;18.80;99.90;;;;;;5051613;28;20193;-65
2022/09/10 08:11:38;;;;;;;3.10;0.70;;;19.40;99.90;;;;;;5050646;28;20730;-66
2022/09/10 08:14:04;;;;;;;1.30;0.50;;;18.70;99.90;;;;;;5051491;28;20188;-65
2022/09/10 08:16:29;;;;;;;1.30;0.43;;;18.20;99.90;;;;;;5050511;28;20459;-66
2022/09/10 08:18:59;;;;;;;1.70;0.50;;;17.70;99.90;;;;;;5051645;28;20627;-66
2022/09/10 08:21:25;;;;;;;1.40;0.50;;;17.80;99.90;;;;;;5050882;28;20186;-66
2022/09/10 08:23:56;;;;;;;1.30;0.50;;;18.30;99.90;;;;;;5051451;28;20424;-66
2022/09/10 08:26:23;;;;;;;3.67;0.50;;;18.70;99.90;;;;;;5051226;28;20193;-67
2022/09/10 08:28:54;;;;;;;10.43;0.70;;;19.30;99.90;;;;;;5046190;28;20424;-66
2022/09/10 08:31:21;;;;;;;3.53;1.33;;;19.70;99.90;;;;;;5035883;28;20435;-66
2022/09/10 08:33:49;;;;;;;3.40;0.70;;;19.40;99.90;;;;;;5051253;28;20427;-66
2022/09/10 08:36:15;;;;;;;1.73;0.60;;;19.50;99.90;;;;;;5051028;28;20971;-66
2022/09/10 08:38:42;;;;;;;2.87;0.70;;;19.30;99.90;;;;;;5053226;28;20432;-66
2022/09/10 08:41:32;;;;;;;1.30;0.50;;;19.20;99.90;;;;;;5054665;28;20424;-66
2022/09/10 08:44:02;;;;;;;4.90;1.23;;;19.40;99.90;;;;;;5054879;28;20547;-66
2022/09/10 08:46:32;;;;;;;1.57;0.60;;;19.10;99.90;;;;;;5054390;28;20908;-66
2022/09/10 08:49:08;;;;;;;1.87;0.70;;;19.00;99.90;;;;;;5041615;28;20469;-66
2022/09/10 08:51:58;;;;;;;2.43;1.00;;;18.80;99.90;;;;;;5054438;28;20427;-66
2022/09/10 08:54:33;;;;;;;1.60;0.60;;;18.60;99.90;;;;;;5041398;28;20417;-66
2022/09/10 08:57:00;;;;;;;1.70;0.83;;;18.30;99.90;;;;;;5052918;28;20479;-66
2022/09/10 08:59:35;;;;;;;2.13;0.77;;;18.10;99.90;;;;;;5055015;28;20445;-66
2022/09/10 09:02:28;;;;;;;1.80;0.77;;;18.00;99.90;;;;;;5040932;28;20428;-66
2022/09/10 09:04:57;;;;;;;1.60;0.63;;;17.80;99.90;;;;;;5054566;28;20511;-66
2022/09/10 09:07:25;;;;;;;2.37;0.73;;;17.60;99.90;;;;;;5055107;28;20510;-66
2022/09/10 09:09:51;;;;;;;4.43;0.70;;;17.40;99.90;;;;;;5054672;28;20439;-66
2022/09/10 09:12:36;;;;;;;1.73;0.70;;;17.10;99.90;;;;;;5054074;28;20420;-66
2022/09/10 09:15:05;;;;;;;4.73;0.87;;;17.00;99.90;;;;;;5053796;28;20188;-66
2022/09/10 09:18:03;;;;;;;2.03;0.70;;;16.90;99.90;;;;;;5054439;28;20444;-66
2022/09/10 09:20:38;;;;;;;5.47;0.73;;;16.90;99.90;;;;;;5051460;28;20507;-65
2022/09/10 09:23:18;;;;;;;2.27;0.60;;;16.80;99.90;;;;;;5040755;28;20411;-66
2022/09/10 09:25:52;;;;;;;9.07;0.80;;;16.80;99.90;;;;;;5053133;28;20420;-65
2022/09/10 09:28:25;;;;;;;3.00;0.97;;;16.70;99.90;;;;;;5049002;28;20424;-65
2022/09/10 09:30:52;;;;;;;2.37;0.70;;;16.70;99.90;;;;;;5052893;28;20420;-65
2022/09/10 09:33:23;;;;;;;8.63;0.90;;;16.90;99.90;;;;;;5053529;28;20436;-66
2022/09/10 09:35:49;;;;;;;3.30;0.90;;;16.80;99.90;;;;;;5054047;28;20468;-66
2022/09/10 09:38:25;;;;;;;1.93;0.77;;;16.70;99.90;;;;;;5054295;28;20420;-66
2022/09/10 09:40:57;;;;;;;3.00;0.80;;;16.80;99.90;;;;;;5053877;28;20182;-66
2022/09/10 09:43:41;;;;;;;4.43;0.60;;;16.80;99.90;;;;;;5053968;28;20511;-66
2022/09/10 09:46:19;;;;;;;1.50;0.70;;;16.90;99.90;;;;;;5053553;28;20416;-66
2022/09/10 09:48:46;;;;;;;2.50;0.70;;;16.80;99.90;;;;;;5040189;28;20420;-66
2022/09/10 09:51:19;;;;;;;1.90;0.80;;;16.80;99.90;;;;;;5053388;28;20428;-66
2022/09/10 09:53:46;;;;;;;2.23;1.00;;;16.80;99.90;;;;;;5054076;28;20896;-66
2022/09/10 09:56:24;;;;;;;1.30;0.50;;;17.00;99.90;;;;;;5046525;28;20487;-66
2022/09/10 09:58:51;;;;;;;2.07;0.70;;;17.00;99.90;;;;;;5053709;28;20424;-65
2022/09/10 10:01:20;;;;;;;1.93;0.60;;;17.00;99.90;;;;;;5052456;28;20431;-66
2022/09/10 10:03:51;;;;;;;2.13;0.70;;;17.10;99.90;;;;;;5053626;28;20420;-65
2022/09/10 10:06:20;;;;;;;2.00;0.70;;;17.20;99.90;;;;;;5053515;28;20448;-66
2022/09/10 10:09:02;;;;;;;2.80;0.60;;;17.30;99.90;;;;;;5053466;28;20423;-66
2022/09/10 10:11:49;;;;;;;4.50;0.73;;;17.10;99.90;;;;;;5052832;28;20424;-66
2022/09/10 10:14:18;;;;;;;1.50;0.60;;;17.10;99.90;;;;;;5053599;28;20509;-66
2022/09/10 10:16:52;;;;;;;2.70;0.70;;;17.00;99.90;;;;;;5052728;28;20518;-65
2022/09/10 10:19:39;;;;;;;5.87;0.57;;;17.00;99.90;;;;;;5053143;28;20435;-66
2022/09/10 10:22:15;;;;;;;1.47;0.70;;;16.90;99.90;;;;;;5052929;28;20412;-66
2022/09/10 10:24:42;;;;;;;3.73;1.17;;;17.10;99.90;;;;;;5052479;28;20420;-66
2022/09/10 10:27:19;;;;;;;1.30;0.40;;;17.30;99.90;;;;;;5045558;28;20417;-66
2022/09/10 10:30:13;;;;;;;1.50;0.50;;;17.50;99.90;;;;;;5042153;28;20894;-66
2022/09/10 10:32:51;;;;;;;2.23;1.03;;;17.90;99.90;;;;;;5035136;28;20523;-66
2022/09/10 10:35:48;;;;;;;3.77;0.97;;;18.20;99.90;;;;;;5052911;28;20447;-67
2022/09/10 10:38:26;;;;;;;1.87;0.60;;;18.10;99.90;;;;;;5053282;28;20443;-66
2022/09/10 10:40:55;;;;;;;2.07;0.50;;;18.10;99.40;;;;;;5052860;28;20415;-66
2022/09/10 10:43:24;;;;;;;1.30;0.40;;;18.00;99.80;;;;;;5040120;28;20491;-66
2022/09/10 10:45:59;;;;;;;2.67;1.00;;;17.80;99.40;;;;;;5051740;28;20424;-66
2022/09/10 10:48:51;;;;;;;6.40;0.73;;;17.60;99.80;;;;;;5052618;28;20419;-66
2022/09/10 10:51:35;;;;;;;7.60;0.77;;;17.60;99.20;;;;;;5041088;28;20432;-66
2022/09/10 10:54:06;;;;;;;5.30;1.13;;;17.70;99.50;;;;;;5039551;28;20778;-66
2022/09/10 10:56:41;;;;;;;1.40;0.60;;;18.10;99.90;;;;;;5046586;28;20472;-67
2022/09/10 10:59:16;;;;;;;3.47;0.87;;;18.40;98.50;;;;;;5052733;28;20420;-66
2022/09/10 11:01:49;;;;;;;1.70;0.70;;;18.50;98.50;;;;;;5050545;28;20420;-66
2022/09/10 11:04:29;;;;;;;1.50;0.47;;;18.70;96.80;;;;;;5052598;28;20443;-66
2022/09/10 11:07:06;;;;;;;1.93;0.60;;;18.50;97.20;;;;;;5052470;28;20760;-66
2022/09/10 11:10:03;;;;;;;1.30;0.60;;;18.30;97.40;;;;;;5051755;28;20748;-66
2022/09/10 11:12:37;;;;;;;1.50;0.63;;;18.40;98.30;;;;;;5023755;28;20432;-66
2022/09/10 11:15:35;;;;;;;2.57;0.73;;;19.00;97.20;;;;;;5051648;28;20467;-67
2022/09/10 11:18:29;;;;;;;2.27;1.00;;;19.00;96.00;;;;;;5039746;28;20440;-66
2022/09/10 11:21:28;;;;;;;2.57;0.90;;;18.80;96.60;;;;;;5047116;28;20433;-66
2022/09/10 11:24:17;;;;;;;4.57;0.80;;;18.70;96.30;;;;;;5052119;28;20764;-66
2022/09/10 11:26:55;;;;;;;2.00;0.60;;;18.50;97.50;;;;;;5051095;28;20431;-67
2022/09/10 11:29:30;;;;;;;2.23;0.80;;;18.70;95.90;;;;;;5048293;28;20428;-67
2022/09/10 11:32:17;;;;;;;1.47;0.53;;;18.80;95.30;;;;;;5039035;28;20448;-66
2022/09/10 11:34:57;;;;;;;6.23;0.70;;;18.90;95.40;;;;;;5032082;28;20429;-66
2022/09/10 11:37:53;;;;;;;3.43;0.90;;;19.10;95.20;;;;;;5048438;28;20468;-66
2022/09/10 11:40:24;;;;;;;1.53;0.60;;;18.80;96.00;;;;;;5051968;28;20463;-66
2022/09/10 11:42:55;;;;;;;1.30;0.50;;;18.80;95.00;;;;;;5051335;28;20462;-67
2022/09/10 11:45:31;;;;;;;1.33;0.50;;;18.80;95.10;;;;;;5051231;28;20443;-66
2022/09/10 11:48:19;;;;;;;1.93;0.67;;;18.90;95.60;;;;;;5051439;28;20447;-66
2022/09/10 11:50:47;;;;;;;1.90;0.77;;;18.90;95.50;;;;;;5051398;28;20405;-66
2022/09/10 11:53:17;;;;;;;2.13;0.73;;;19.00;94.60;;;;;;5038250;28;20421;-66
2022/09/10 11:56:14;;;;;;;2.27;0.93;;;19.20;95.00;;;;;;5046146;28;20472;-67
2022/09/10 11:59:07;;;;;;;2.17;0.70;;;18.90;94.20;;;;;;5049707;28;20434;-66
2022/09/10 12:01:42;;;;;;;1.73;0.73;;;18.70;94.80;;;;;;5050278;28;20423;-67
2022/09/10 12:04:23;;;;;;;7.57;1.23;;;18.80;95.30;;;;;;5043308;28;20420;-66
2022/09/10 12:06:52;;;;;;;1.30;0.50;;;19.20;94.80;;;;;;5047727;28;20416;-67
2022/09/10 12:09:27;;;;;;;1.70;0.60;;;19.70;93.90;;;;;;5048951;28;20783;-66
2022/09/10 12:12:13;;;;;;;1.40;0.60;;;20.00;92.70;;;;;;5050691;28;21112;-66
2022/09/10 12:14:40;;;;;;;1.53;0.60;;;20.00;92.70;;;;;;5053688;28;20526;-66
2022/09/10 12:17:27;;;;;;;1.60;0.70;;;20.10;93.30;;;;;;5053353;28;20463;-66
2022/09/10 12:19:56;;;;;;;2.83;0.60;;;20.10;93.70;;;;;;5040706;28;20408;-67
2022/09/10 12:22:38;;;;;;;2.27;0.70;;;20.30;92.80;;;;;;5051610;28;20448;-67
2022/09/10 12:25:07;;;;;;;4.50;0.60;;;20.30;92.10;;;;;;5052374;28;20407;-66
2022/09/10 12:27:51;;;;;;;1.40;0.60;;;20.20;91.00;;;;;;5053794;28;20454;-66
2022/09/10 12:30:29;;;;;;;1.70;0.67;;;20.20;92.70;;;;;;5052431;28;20424;-66
2022/09/10 12:32:59;;;;;;;1.57;0.60;;;20.50;91.80;;;;;;5053188;28;20955;-66
2022/09/10 12:35:34;;;;;;;4.83;0.70;;;20.50;91.50;;;;;;5053306;28;20439;-66
2022/09/10 12:38:40;;;;;;;1.83;0.73;;;20.40;91.50;;;;;;5053383;28;20985;-66
2022/09/10 12:41:24;;;;;;;2.50;1.20;;;20.30;91.00;;;;;;5052147;28;20474;-66
2022/09/10 12:43:57;;;;;;;1.30;0.40;;;20.30;91.30;;;;;;5054887;28;20958;-69
2022/09/10 12:46:24;;;;;;;1.50;0.60;;;20.10;91.20;;;;;;5054170;28;20416;-66
2022/09/10 12:48:54;;;;;;;2.23;0.90;;;20.10;92.00;;;;;;5054055;28;20868;-66
2022/09/10 12:51:41;;;;;;;3.00;0.93;;;20.00;91.50;;;;;;5054083;28;20489;-65
2022/09/10 12:54:15;;;;;;;2.03;0.83;;;19.90;92.40;;;;;;5053657;28;20454;-66
2022/09/10 12:56:49;;;;;;;3.43;1.30;;;19.70;92.80;;;;;;5050015;28;20477;-66
2022/09/10 12:59:41;;;;;;;4.40;1.50;;;19.50;93.10;;;;;;5045461;28;20429;-67
2022/09/10 13:02:36;;;;;;;4.13;1.80;;;19.30;93.50;;;;;;5053997;28;20416;-67
2022/09/10 13:05:39;;;;;;;4.93;1.00;;;19.10;93.30;;;;;;5053566;28;20963;-65
2022/09/10 13:08:11;;;;;;;1.83;0.90;;;18.90;93.50;;;;;;5052209;28;20435;-66